Frakt Vik — 5BKU4 — position and weather

sailwx.info

Track history (hours):
 
Tides and Currents Weather Stations Pressure Air Temp Water Temp Dewpoint Dewpoint Depression Visibility Wind Speed Wind Dir Waves Ship Positions

Frakt Vik

Last reported at 2018-May-20 17:30 UTC. Time now 2018-May-20 17:43 UTC.
Position N 54°38' E 020°00'.

Length 90 m; draft 6.2 m.

Type: Ship. MMSI: 212979000.

Date/timePositionNaut miles runAvg speedWind from/ knotsBaromVisibWave heightAir tempDewpointWater temp
2018-May-20 17:30N 54°38' E 020°00'7 8.2
2018-May-20 16:40N 54°41' E 020°11'1 1.2
2018-May-20 15:49N 54°41' E 020°13'0 0.0
2018-May-20 15:25N 54°41' E 020°13'0 0.0
2018-May-20 14:24N 54°41' E 020°13'0 0.0
2018-May-20 09:26N 54°41' E 020°13'0 0.0
2018-May-20 08:50N 54°41' E 020°13'0 0.0
2018-May-20 06:38N 54°41' E 020°13'0 0.0
2018-May-20 06:08N 54°41' E 020°13'0 0.1
2018-May-20 06:00N 54°41' E 020°13'0 0.0
2018-May-20 05:20N 54°41' E 020°13'0 0.0
2018-May-20 05:00N 54°41' E 020°13'0 0.0
2018-May-20 04:24N 54°41' E 020°13'0 0.0
2018-May-20 03:54N 54°41' E 020°13'0 0.0
2018-May-20 03:08N 54°41' E 020°13'0 0.0
2018-May-20 02:12N 54°41' E 020°13'0 0.0
2018-May-20 01:54N 54°41' E 020°13'0 0.0
2018-May-20 01:30N 54°41' E 020°13'0 0.0
2018-May-20 00:44N 54°41' E 020°13'0 0.0
2018-May-20 00:24N 54°41' E 020°13'0 0.0
2018-May-20 00:00N 54°41' E 020°13'0 0.0
2018-May-19 23:30N 54°41' E 020°13'0 0.0
2018-May-19 22:56N 54°41' E 020°13'0 0.0
2018-May-19 22:30N 54°41' E 020°13'0 0.0
2018-May-19 21:49N 54°41' E 020°13'0 0.0
2018-May-19 21:30N 54°41' E 020°13'0 0.0
2018-May-19 21:00N 54°41' E 020°13'0 0.0
2018-May-19 20:30N 54°41' E 020°13'0 0.0
2018-May-19 20:00N 54°41' E 020°13'0 0.0
2018-May-19 19:30N 54°41' E 020°13'0 0.0
2018-May-19 19:00N 54°41' E 020°13'0 0.0
2018-May-19 18:25N 54°41' E 020°13'0 0.0
2018-May-19 18:00N 54°41' E 020°13'0 0.0
2018-May-19 17:29N 54°41' E 020°13'0 0.0
2018-May-19 17:00N 54°41' E 020°13'0 0.0
2018-May-19 16:30N 54°41' E 020°13'0 0.0
2018-May-19 16:00N 54°41' E 020°13'0 0.0
2018-May-19 15:26N 54°41' E 020°13'0 0.0
2018-May-19 15:00N 54°41' E 020°13'0 0.0
2018-May-19 14:24N 54°41' E 020°13'0 0.0
2018-May-19 14:00N 54°41' E 020°13'0 0.0
2018-May-19 13:30N 54°41' E 020°13'0 0.0
2018-May-19 13:00N 54°41' E 020°13'0 0.0
2018-May-19 12:30N 54°41' E 020°13'0 0.0
2018-May-19 12:00N 54°41' E 020°13'0 0.0
2018-May-19 11:24N 54°41' E 020°13'0 0.0
2018-May-19 11:00N 54°41' E 020°13'0 0.0
2018-May-19 10:29N 54°41' E 020°13'0 0.0
2018-May-19 09:56N 54°41' E 020°13'0 0.0
2018-May-19 09:29N 54°41' E 020°13'0 0.0
2018-May-19 08:56N 54°41' E 020°13'0 0.0
2018-May-19 08:30N 54°41' E 020°13'0 0.0
2018-May-19 08:00N 54°41' E 020°13'0 0.0
2018-May-19 07:24N 54°41' E 020°13'0 0.0
2018-May-19 05:14N 54°41' E 020°13'0 0.0
2018-May-19 04:56N 54°41' E 020°13'0 0.0
2018-May-19 02:38N 54°41' E 020°13'0 0.0
2018-May-19 02:08N 54°41' E 020°13'0 0.0
2018-May-18 21:24N 54°41' E 020°13'0 0.0
2018-May-18 19:00N 54°41' E 020°13'0 0.0
2018-May-18 18:30N 54°41' E 020°13'0 0.0
2018-May-18 13:24N 54°41' E 020°13'0 0.0
2018-May-18 11:32N 54°41' E 020°13'0 1.2
2018-May-18 11:29N 54°41' E 020°13'9 8.1
2018-May-18 10:24N 54°38' E 019°59'6 8.3
2018-May-18 09:41N 54°40' E 019°49'1 0.6
2018-May-18 08:22N 54°39' E 019°47'0 0.0
2018-May-18 07:43N 54°39' E 019°47'0 0.0
2018-May-18 07:31N 54°39' E 019°47'0 0.0
2018-May-17 20:45N 54°39' E 019°47'2 4.8
2018-May-17 20:19N 54°41' E 019°44'411.8
2018-May-17 20:00N 54°41' E 019°38'611.8
2018-May-17 19:30N 54°41' E 019°28'611.5
2018-May-17 19:00N 54°41' E 019°18'611.6
2018-May-17 18:30N 54°41' E 019°08'611.5
2018-May-17 18:01N 54°40' E 018°58'611.0
2018-May-17 17:30N 54°35' E 018°53'611.1
2018-May-17 17:01N 54°31' E 018°47'611.4
2018-May-17 16:30N 54°27' E 018°40'3 6.3
2018-May-17 16:01N 54°24' E 018°40'1 2.6
2018-May-17 15:29N 54°22' E 018°40'0 0.0
2018-May-17 14:59N 54°22' E 018°40'0 0.0
2018-May-17 14:23N 54°22' E 018°40'0 0.0
2018-May-17 13:59N 54°22' E 018°40'0 0.0
2018-May-17 13:29N 54°22' E 018°40'0 0.0
2018-May-17 12:57N 54°22' E 018°40'0 0.0
2018-May-17 12:29N 54°22' E 018°40'0 0.0
2018-May-17 11:59N 54°22' E 018°40'0 0.0
2018-May-17 11:29N 54°22' E 018°40'0 0.0
2018-May-17 10:59N 54°22' E 018°40'0 0.0
2018-May-17 10:28N 54°22' E 018°40'0 0.0
2018-May-17 09:59N 54°22' E 018°40'0 0.0
2018-May-17 09:28N 54°22' E 018°40'0 0.0
2018-May-17 08:59N 54°22' E 018°40'0 0.0
2018-May-17 08:29N 54°22' E 018°40'0 0.0
2018-May-17 07:58N 54°22' E 018°40'0 0.0
2018-May-17 07:28N 54°22' E 018°40'0 0.0
2018-May-17 06:53N 54°22' E 018°40'0 0.0
2018-May-17 06:29N 54°22' E 018°40'0 0.0
2018-May-17 05:59N 54°22' E 018°40'0 0.0
2018-May-17 05:24N 54°22' E 018°40'0 0.0
2018-May-17 05:00N 54°22' E 018°40'0 0.0
2018-May-17 04:30N 54°22' E 018°40'0 0.0
2018-May-17 04:00N 54°22' E 018°40'0 0.0
2018-May-17 03:30N 54°22' E 018°40'0 0.0
2018-May-17 03:00N 54°22' E 018°40'0 0.0
2018-May-17 02:30N 54°22' E 018°40'0 0.0
2018-May-17 02:00N 54°22' E 018°40'0 0.0
2018-May-17 01:28N 54°22' E 018°40'0 0.0
2018-May-17 01:00N 54°22' E 018°40'0 0.0
2018-May-17 00:30N 54°22' E 018°40'0 0.0
2018-May-17 00:00N 54°22' E 018°40'0 0.0
2018-May-16 23:30N 54°22' E 018°40'0 0.0
2018-May-16 23:00N 54°22' E 018°40'0 0.0
2018-May-16 22:30N 54°22' E 018°40'0 0.0
2018-May-16 22:00N 54°22' E 018°40'0 0.0
2018-May-16 21:30N 54°22' E 018°40'0 0.0
2018-May-16 21:00N 54°22' E 018°40'0 0.0
2018-May-16 20:30N 54°22' E 018°40'0 0.0
2018-May-16 20:00N 54°22' E 018°40'0 0.0
2018-May-16 19:30N 54°22' E 018°40'0 0.0
2018-May-16 19:00N 54°22' E 018°40'0 0.0
2018-May-16 18:28N 54°22' E 018°40'0 0.0
2018-May-16 18:00N 54°22' E 018°40'0 0.0
2018-May-16 17:30N 54°22' E 018°40'0 0.0
2018-May-16 17:00N 54°22' E 018°40'0 0.0
2018-May-16 16:29N 54°22' E 018°40'0 0.0
2018-May-16 16:00N 54°22' E 018°40'0 0.0
2018-May-16 15:24N 54°22' E 018°40'0 0.0
2018-May-16 15:00N 54°22' E 018°40'0 0.0
2018-May-16 14:30N 54°22' E 018°40'0 0.0
2018-May-16 13:58N 54°22' E 018°40'0 0.0
2018-May-16 13:28N 54°22' E 018°40'0 0.0
2018-May-16 13:00N 54°22' E 018°40'0 0.0
2018-May-16 12:30N 54°22' E 018°40'0 0.0
2018-May-16 11:55N 54°22' E 018°40'0 0.0
2018-May-16 11:28N 54°22' E 018°40'0 0.0
2018-May-16 10:52N 54°22' E 018°40'0 0.0
2018-May-16 10:28N 54°22' E 018°40'0 0.0
2018-May-16 09:55N 54°22' E 018°40'0 0.0
2018-May-16 09:28N 54°22' E 018°40'0 0.0
2018-May-16 08:55N 54°22' E 018°40'0 0.0
2018-May-16 08:31N 54°22' E 018°40'0 0.0
2018-May-16 07:58N 54°22' E 018°40'0 0.0
2018-May-16 07:28N 54°22' E 018°40'0 0.0
2018-May-16 06:55N 54°22' E 018°40'0 0.0
2018-May-16 06:30N 54°22' E 018°40'2 3.1
2018-May-16 06:00N 54°24' E 018°41'3 7.0
2018-May-16 05:30N 54°27' E 018°41'510.7
2018-May-16 05:00N 54°31' E 018°47'611.6
2018-May-16 04:30N 54°36' E 018°53'611.7
2018-May-16 04:00N 54°41' E 018°57'510.4
2018-May-16 03:30N 54°46' E 018°56'611.6
2018-May-16 03:00N 54°50' E 018°48'611.7
2018-May-16 02:30N 54°54' E 018°40'510.8
2018-May-16 02:00N 54°55' E 018°31'9611.3
2018-May-15 17:33N 54°50' E 015°45'011.5
2018-May-15 17:30N 54°50' E 015°44'611.4
2018-May-15 17:00N 54°50' E 015°34'611.6
2018-May-15 16:30N 54°51' E 015°24'611.6
2018-May-15 16:00N 54°52' E 015°14'611.5
2018-May-15 15:30N 54°52' E 015°04'611.3
2018-May-15 15:00N 54°53' E 014°55'611.2
2018-May-15 14:30N 54°55' E 014°46'611.3
2018-May-15 14:00N 54°58' E 014°37'611.4
2018-May-15 13:30N 55°01' E 014°29'611.5
2018-May-15 13:00N 55°04' E 014°21'611.5
2018-May-15 12:30N 55°07' E 014°12'611.1
2018-May-15 12:00N 55°09' E 014°03'711.4
2018-May-15 11:22N 55°10' E 013°50'611.5
2018-May-15 10:51N 55°11' E 013°40'1311.8
2018-May-15 09:44N 55°13' E 013°17'311.9
2018-May-15 09:30N 55°13' E 013°12'611.8
2018-May-15 09:00N 55°14' E 013°02'611.7
2018-May-15 08:30N 55°15' E 012°52'611.7
2018-May-15 08:00N 55°17' E 012°42'5 9.9
2018-May-15 07:30N 55°21' E 012°38'611.6
2018-May-15 07:00N 55°27' E 012°40'611.4
2018-May-15 06:30N 55°32' E 012°42'510.5
2018-May-15 06:00N 55°37' E 012°42'510.8
2018-May-15 05:30N 55°43' E 012°41'611.1
2018-May-15 05:00N 55°48' E 012°40'511.0
2018-May-15 04:30N 55°54' E 012°38'611.1
2018-May-15 04:00N 55°59' E 012°37'5 9.4
2018-May-15 03:30N 56°04' E 012°37'1511.2
2018-May-15 02:08N 56°13' E 012°14'211.2
2018-May-15 01:58N 56°14' E 012°12'511.3
2018-May-15 01:30N 56°18' E 012°04'611.5
2018-May-15 00:59N 56°23' E 012°01'511.3
2018-May-15 00:30N 56°28' E 011°58'611.3
2018-May-14 23:59N 56°34' E 011°56'511.3
2018-May-14 23:30N 56°39' E 011°54'611.4
2018-May-14 23:00N 56°45' E 011°51'611.4
2018-May-14 22:30N 56°50' E 011°48'611.4
2018-May-14 22:00N 56°55' E 011°44'611.3
2018-May-14 21:29N 57°01' E 011°39'511.3
2018-May-14 21:00N 57°06' E 011°36'611.5
2018-May-14 20:30N 57°11' E 011°33'611.9
2018-May-14 20:00N 57°17' E 011°29'612.0
2018-May-14 19:30N 57°23' E 011°25'612.3
2018-May-14 19:00N 57°29' E 011°22'611.8
2018-May-14 18:30N 57°33' E 011°14'611.7
2018-May-14 18:00N 57°37' E 011°06'611.8
2018-May-14 17:30N 57°41' E 010°58'611.4
2018-May-14 17:00N 57°45' E 010°50'510.9
2018-May-14 16:30N 57°47' E 010°41'611.2
2018-May-14 16:00N 57°47' E 010°30'611.8
2018-May-14 15:30N 57°48' E 010°19'6211.6
2018-May-14 10:08N 57°52' E 008°23'210.7
2018-May-14 10:00N 57°52' E 008°20'510.5
2018-May-14 09:30N 57°53' E 008°10'510.5
2018-May-14 09:00N 57°53' E 008°00'510.6
2018-May-14 08:30N 57°54' E 007°51'510.4
2018-May-14 08:00N 57°54' E 007°41'510.6
2018-May-14 07:30N 57°55' E 007°31'610.4
2018-May-14 06:59N 57°55' E 007°21'511.0
2018-May-14 06:30N 57°56' E 007°11'510.8
2018-May-14 06:00N 57°57' E 007°01'510.6
2018-May-14 05:30N 57°59' E 006°51'510.7
2018-May-14 05:00N 58°00' E 006°42'510.0
2018-May-14 04:30N 58°03' E 006°34'510.1
2018-May-14 04:00N 58°07' E 006°27'611.2
2018-May-14 03:30N 58°10' E 006°19'611.9
2018-May-14 03:00N 58°14' E 006°10'612.0
2018-May-14 02:30N 58°18' E 006°02'612.1
2018-May-14 02:00N 58°22' E 005°53'612.1
2018-May-14 01:31N 58°26' E 005°44'611.4
2018-May-14 01:00N 58°30' E 005°36'611.4
2018-May-14 00:30N 58°34' E 005°29'611.3
2018-May-14 00:00N 58°39' E 005°23'611.6
2018-May-13 23:30N 58°44' E 005°17'611.7
2018-May-13 22:59N 58°49' E 005°11'612.0
2018-May-13 22:30N 58°54' E 005°05'611.8
2018-May-13 22:00N 58°59' E 004°59'611.7
2018-May-13 21:30N 59°04' E 004°55'611.7
2018-May-13 21:00N 59°09' E 004°49'1510.9
2018-May-13 19:40N 59°24' E 004°44'211.6
2018-May-13 19:30N 59°26' E 004°45'611.2
2018-May-13 19:00N 59°31' E 004°46'611.2
2018-May-13 18:30N 59°37' E 004°48'611.3
2018-May-13 18:00N 59°42' E 004°50'611.9
2018-May-13 17:30N 59°48' E 004°51'611.8
2018-May-13 17:00N 59°54' E 004°53'611.5
2018-May-13 16:29N 59°60' E 004°55'611.4
2018-May-13 16:00N 60°05' E 004°56'510.4
2018-May-13 15:30N 60°09' E 005°04'510.2
2018-May-13 15:00N 60°13' E 005°10'510.9
2018-May-13 14:30N 60°18' E 005°12'5 9.9
2018-May-13 14:00N 60°23' E 005°11'5 9.9
2018-May-13 13:30N 60°28' E 005°15'610.8
2018-May-13 13:00N 60°33' E 005°20'611.7
2018-May-13 12:30N 60°36' E 005°29'5 9.7
2018-May-13 12:00N 60°41' E 005°34'2 2.8
2018-May-13 11:28N 60°42' E 005°33'0 0.0
2018-May-13 10:46N 60°42' E 005°33'0 0.0
2018-May-13 10:28N 60°42' E 005°33'0 0.0
2018-May-13 09:46N 60°42' E 005°33'0 0.0
2018-May-13 09:29N 60°42' E 005°33'0 0.0
2018-May-13 08:29N 60°42' E 005°33'0 0.0
2018-May-13 07:59N 60°42' E 005°33'0 0.0
2018-May-13 07:18N 60°42' E 005°33'0 0.1
2018-May-13 06:53N 60°42' E 005°33'0 0.0
2018-May-13 06:17N 60°42' E 005°33'0 0.0
2018-May-13 05:59N 60°42' E 005°33'0 0.0
2018-May-13 05:29N 60°42' E 005°33'0 0.0
2018-May-13 04:58N 60°42' E 005°33'0 0.0
2018-May-13 04:28N 60°42' E 005°33'0 0.0
2018-May-13 03:56N 60°42' E 005°33'0 0.0
2018-May-13 03:30N 60°42' E 005°33'1 1.4
2018-May-13 03:00N 60°41' E 005°34'5 9.5
2018-May-13 02:30N 60°37' E 005°30'3 5.9
2018-May-13 01:59N 60°35' E 005°26'2 5.1
2018-May-13 01:30N 60°33' E 005°22'2 5.0
2018-May-13 01:00N 60°32' E 005°18'2 4.5
2018-May-13 00:30N 60°30' E 005°15'2 4.7
2018-May-13 00:00N 60°28' E 005°15'2 4.8
2018-May-12 23:30N 60°25' E 005°16'2 3.4
2018-May-12 23:00N 60°24' E 005°14'0 0.5
2018-May-12 22:30N 60°24' E 005°14'0 0.0
2018-May-12 22:00N 60°24' E 005°14'0 0.0
2018-May-12 21:30N 60°24' E 005°14'0 0.0
2018-May-12 20:57N 60°24' E 005°14'0 0.1
2018-May-12 20:29N 60°24' E 005°14'3 6.8
2018-May-12 19:59N 60°21' E 005°10'5 9.5
2018-May-12 19:30N 60°16' E 005°10'510.4
2018-May-12 19:00N 60°11' E 005°13'611.5
2018-May-12 18:30N 60°06' E 005°18'611.9
2018-May-12 18:00N 60°00' E 005°19'611.8
2018-May-12 17:30N 59°56' E 005°11'612.4
2018-May-12 17:00N 59°50' E 005°16'1 2.3
2018-May-12 16:27N 59°49' E 005°16'0 0.1
2018-May-12 15:57N 59°49' E 005°16'0 0.0
2018-May-12 15:26N 59°49' E 005°16'0 0.0
2018-May-12 14:57N 59°49' E 005°16'0 0.0
2018-May-12 14:27N 59°49' E 005°16'0 0.0
2018-May-12 13:57N 59°49' E 005°16'0 0.0
2018-May-12 13:27N 59°49' E 005°16'0 0.0
2018-May-12 12:57N 59°49' E 005°16'0 0.0
2018-May-12 12:26N 59°49' E 005°16'0 0.0
2018-May-12 11:57N 59°49' E 005°16'0 0.0
2018-May-12 11:26N 59°49' E 005°16'0 0.0
2018-May-12 10:56N 59°49' E 005°16'0 0.0
2018-May-12 10:26N 59°49' E 005°16'0 0.0
2018-May-12 09:56N 59°49' E 005°16'0 0.0
2018-May-12 09:26N 59°49' E 005°16'0 0.0
2018-May-12 08:56N 59°49' E 005°16'0 0.0
2018-May-12 08:27N 59°49' E 005°16'0 0.0
2018-May-12 07:57N 59°49' E 005°16'0 0.0
2018-May-12 07:27N 59°49' E 005°16'0 0.0
2018-May-12 06:56N 59°49' E 005°16'0 0.0
2018-May-12 06:26N 59°49' E 005°16'0 0.0
2018-May-12 05:57N 59°49' E 005°16'0 0.0
2018-May-12 05:27N 59°49' E 005°16'0 0.0
2018-May-12 04:57N 59°49' E 005°16'0 0.0
2018-May-12 04:29N 59°49' E 005°16'0 0.0
2018-May-12 03:59N 59°49' E 005°16'0 0.0
2018-May-12 03:29N 59°49' E 005°16'0 0.0
2018-May-12 02:59N 59°49' E 005°16'0 0.0
2018-May-12 02:29N 59°49' E 005°16'0 0.0
2018-May-12 01:59N 59°49' E 005°16'0 0.0
2018-May-12 01:29N 59°49' E 005°16'0 0.0
2018-May-12 00:59N 59°49' E 005°16'0 0.0
2018-May-12 00:29N 59°49' E 005°16'0 0.0
2018-May-11 23:59N 59°49' E 005°16'0 0.0
2018-May-11 23:29N 59°49' E 005°16'0 0.0
2018-May-11 22:59N 59°49' E 005°16'0 0.0
2018-May-11 22:29N 59°49' E 005°16'0 0.0
2018-May-11 21:59N 59°49' E 005°16'0 0.0
2018-May-11 21:29N 59°49' E 005°16'0 0.0
2018-May-11 20:59N 59°49' E 005°16'0 0.0
2018-May-11 20:29N 59°49' E 005°16'0 0.0
2018-May-11 20:00N 59°49' E 005°16'0 0.0
2018-May-11 19:30N 59°49' E 005°16'0 0.0
2018-May-11 19:00N 59°49' E 005°16'0 0.0
2018-May-11 18:30N 59°49' E 005°16'0 0.0
2018-May-11 18:00N 59°49' E 005°16'0 0.0
2018-May-11 17:30N 59°49' E 005°16'0 0.0
2018-May-11 17:00N 59°49' E 005°16'0 0.0
2018-May-11 16:30N 59°49' E 005°16'0 0.0
2018-May-11 16:00N 59°49' E 005°16'0 0.0
2018-May-11 15:30N 59°49' E 005°16'0 0.0
2018-May-11 15:00N 59°49' E 005°16'0 0.0
2018-May-11 14:30N 59°49' E 005°16'0 0.0
2018-May-11 14:00N 59°49' E 005°16'0 0.0
2018-May-11 13:30N 59°49' E 005°16'0 0.0
2018-May-11 13:00N 59°49' E 005°16'0 0.0
2018-May-11 12:30N 59°49' E 005°16'0 0.0
2018-May-11 12:00N 59°49' E 005°16'0 0.0
2018-May-11 11:30N 59°49' E 005°16'0 0.0
2018-May-11 11:00N 59°49' E 005°16'0 0.0
2018-May-11 10:30N 59°49' E 005°16'0 0.0
2018-May-11 09:56N 59°49' E 005°16'0 0.0
2018-May-11 09:30N 59°49' E 005°16'0 0.0
2018-May-11 09:00N 59°49' E 005°16'0 0.0
2018-May-11 08:30N 59°49' E 005°16'0 0.0
2018-May-11 08:00N 59°49' E 005°16'0 0.0
2018-May-11 07:30N 59°49' E 005°16'0 0.0
2018-May-11 07:00N 59°49' E 005°16'0 0.0
2018-May-11 06:30N 59°49' E 005°16'0 0.0
2018-May-11 06:00N 59°49' E 005°16'0 0.0
2018-May-11 05:30N 59°49' E 005°16'0 0.0
2018-May-11 05:00N 59°49' E 005°16'0 0.0
2018-May-11 04:30N 59°49' E 005°16'0 0.0
2018-May-11 04:00N 59°49' E 005°16'0 0.0
2018-May-11 03:30N 59°49' E 005°16'0 0.0
2018-May-11 03:00N 59°49' E 005°16'0 0.0
2018-May-11 02:30N 59°49' E 005°16'0 0.0
2018-May-11 02:00N 59°49' E 005°16'0 0.0
2018-May-11 01:30N 59°49' E 005°16'0 0.0
2018-May-11 01:00N 59°49' E 005°16'0 0.0
2018-May-11 00:30N 59°49' E 005°16'0 0.0
2018-May-11 00:00N 59°49' E 005°16'0 0.0
2018-May-10 23:30N 59°49' E 005°16'0 0.0
2018-May-10 23:00N 59°49' E 005°16'0 0.0
2018-May-10 22:30N 59°49' E 005°16'0 0.0
2018-May-10 22:00N 59°49' E 005°16'0 0.0
2018-May-10 21:30N 59°49' E 005°16'0 0.0
2018-May-10 21:00N 59°49' E 005°16'0 0.0
2018-May-10 20:30N 59°49' E 005°16'0 0.0
2018-May-10 20:00N 59°49' E 005°16'0 0.0
2018-May-10 19:30N 59°49' E 005°16'0 0.0
2018-May-10 19:00N 59°49' E 005°16'0 0.0
2018-May-10 18:30N 59°49' E 005°16'0 0.0
2018-May-10 18:00N 59°49' E 005°16'  
Track history (hours):
 
Tides and Currents Weather Stations Pressure Air Temp Water Temp Dewpoint Dewpoint Depression Visibility Wind Speed Wind Dir Waves Ship Positions

Frakt Vik

Last reported at 2018-May-20 17:30 UTC. Time now 2018-May-20 17:43 UTC.
Position N 54°38' E 020°00'.

Length 90 m; draft 6.2 m.

Type: Ship. MMSI: 212979000.

Date/timePositionNaut miles runAvg speedWind from/ knotsBaromVisibWave heightAir tempDewpointWater temp
2018-May-20 17:30N 54°38' E 020°00'7 8.2
2018-May-20 16:40N 54°41' E 020°11'1 1.2
2018-May-20 15:49N 54°41' E 020°13'0 0.0
2018-May-20 15:25N 54°41' E 020°13'0 0.0
2018-May-20 14:24N 54°41' E 020°13'0 0.0
2018-May-20 09:26N 54°41' E 020°13'0 0.0
2018-May-20 08:50N 54°41' E 020°13'0 0.0
2018-May-20 06:38N 54°41' E 020°13'0 0.0
2018-May-20 06:08N 54°41' E 020°13'0 0.1
2018-May-20 06:00N 54°41' E 020°13'0 0.0
2018-May-20 05:20N 54°41' E 020°13'0 0.0
2018-May-20 05:00N 54°41' E 020°13'0 0.0
2018-May-20 04:24N 54°41' E 020°13'0 0.0
2018-May-20 03:54N 54°41' E 020°13'0 0.0
2018-May-20 03:08N 54°41' E 020°13'0 0.0
2018-May-20 02:12N 54°41' E 020°13'0 0.0
2018-May-20 01:54N 54°41' E 020°13'0 0.0
2018-May-20 01:30N 54°41' E 020°13'0 0.0
2018-May-20 00:44N 54°41' E 020°13'0 0.0
2018-May-20 00:24N 54°41' E 020°13'0 0.0
2018-May-20 00:00N 54°41' E 020°13'0 0.0
2018-May-19 23:30N 54°41' E 020°13'0 0.0
2018-May-19 22:56N 54°41' E 020°13'0 0.0
2018-May-19 22:30N 54°41' E 020°13'0 0.0
2018-May-19 21:49N 54°41' E 020°13'0 0.0
2018-May-19 21:30N 54°41' E 020°13'0 0.0
2018-May-19 21:00N 54°41' E 020°13'0 0.0
2018-May-19 20:30N 54°41' E 020°13'0 0.0
2018-May-19 20:00N 54°41' E 020°13'0 0.0
2018-May-19 19:30N 54°41' E 020°13'0 0.0
2018-May-19 19:00N 54°41' E 020°13'0 0.0
2018-May-19 18:25N 54°41' E 020°13'0 0.0
2018-May-19 18:00N 54°41' E 020°13'0 0.0
2018-May-19 17:29N 54°41' E 020°13'0 0.0
2018-May-19 17:00N 54°41' E 020°13'0 0.0
2018-May-19 16:30N 54°41' E 020°13'0 0.0
2018-May-19 16:00N 54°41' E 020°13'0 0.0
2018-May-19 15:26N 54°41' E 020°13'0 0.0
2018-May-19 15:00N 54°41' E 020°13'0 0.0
2018-May-19 14:24N 54°41' E 020°13'0 0.0
2018-May-19 14:00N 54°41' E 020°13'0 0.0
2018-May-19 13:30N 54°41' E 020°13'0 0.0
2018-May-19 13:00N 54°41' E 020°13'0 0.0
2018-May-19 12:30N 54°41' E 020°13'0 0.0
2018-May-19 12:00N 54°41' E 020°13'0 0.0
2018-May-19 11:24N 54°41' E 020°13'0 0.0
2018-May-19 11:00N 54°41' E 020°13'0 0.0
2018-May-19 10:29N 54°41' E 020°13'0 0.0
2018-May-19 09:56N 54°41' E 020°13'0 0.0
2018-May-19 09:29N 54°41' E 020°13'0 0.0
2018-May-19 08:56N 54°41' E 020°13'0 0.0
2018-May-19 08:30N 54°41' E 020°13'0 0.0
2018-May-19 08:00N 54°41' E 020°13'0 0.0
2018-May-19 07:24N 54°41' E 020°13'0 0.0
2018-May-19 05:14N 54°41' E 020°13'0 0.0
2018-May-19 04:56N 54°41' E 020°13'0 0.0
2018-May-19 02:38N 54°41' E 020°13'0 0.0
2018-May-19 02:08N 54°41' E 020°13'0 0.0
2018-May-18 21:24N 54°41' E 020°13'0 0.0
2018-May-18 19:00N 54°41' E 020°13'0 0.0
2018-May-18 18:30N 54°41' E 020°13'0 0.0
2018-May-18 13:24N 54°41' E 020°13'0 0.0
2018-May-18 11:32N 54°41' E 020°13'0 1.2
2018-May-18 11:29N 54°41' E 020°13'9 8.1
2018-May-18 10:24N 54°38' E 019°59'6 8.3
2018-May-18 09:41N 54°40' E 019°49'1 0.6
2018-May-18 08:22N 54°39' E 019°47'0 0.0
2018-May-18 07:43N 54°39' E 019°47'0 0.0
2018-May-18 07:31N 54°39' E 019°47'0 0.0
2018-May-17 20:45N 54°39' E 019°47'2 4.8
2018-May-17 20:19N 54°41' E 019°44'411.8
2018-May-17 20:00N 54°41' E 019°38'611.8
2018-May-17 19:30N 54°41' E 019°28'611.5
2018-May-17 19:00N 54°41' E 019°18'611.6
2018-May-17 18:30N 54°41' E 019°08'611.5
2018-May-17 18:01N 54°40' E 018°58'611.0
2018-May-17 17:30N 54°35' E 018°53'611.1
2018-May-17 17:01N 54°31' E 018°47'611.4
2018-May-17 16:30N 54°27' E 018°40'3 6.3
2018-May-17 16:01N 54°24' E 018°40'1 2.6
2018-May-17 15:29N 54°22' E 018°40'0 0.0
2018-May-17 14:59N 54°22' E 018°40'0 0.0
2018-May-17 14:23N 54°22' E 018°40'0 0.0
2018-May-17 13:59N 54°22' E 018°40'0 0.0
2018-May-17 13:29N 54°22' E 018°40'0 0.0
2018-May-17 12:57N 54°22' E 018°40'0 0.0
2018-May-17 12:29N 54°22' E 018°40'0 0.0
2018-May-17 11:59N 54°22' E 018°40'0 0.0
2018-May-17 11:29N 54°22' E 018°40'0 0.0
2018-May-17 10:59N 54°22' E 018°40'0 0.0
2018-May-17 10:28N 54°22' E 018°40'0 0.0
2018-May-17 09:59N 54°22' E 018°40'0 0.0
2018-May-17 09:28N 54°22' E 018°40'0 0.0
2018-May-17 08:59N 54°22' E 018°40'0 0.0
2018-May-17 08:29N 54°22' E 018°40'0 0.0
2018-May-17 07:58N 54°22' E 018°40'0 0.0
2018-May-17 07:28N 54°22' E 018°40'0 0.0
2018-May-17 06:53N 54°22' E 018°40'0 0.0
2018-May-17 06:29N 54°22' E 018°40'0 0.0
2018-May-17 05:59N 54°22' E 018°40'0 0.0
2018-May-17 05:24N 54°22' E 018°40'0 0.0
2018-May-17 05:00N 54°22' E 018°40'0 0.0
2018-May-17 04:30N 54°22' E 018°40'0 0.0
2018-May-17 04:00N 54°22' E 018°40'0 0.0
2018-May-17 03:30N 54°22' E 018°40'0 0.0
2018-May-17 03:00N 54°22' E 018°40'0 0.0
2018-May-17 02:30N 54°22' E 018°40'0 0.0
2018-May-17 02:00N 54°22' E 018°40'0 0.0
2018-May-17 01:28N 54°22' E 018°40'0 0.0
2018-May-17 01:00N 54°22' E 018°40'0 0.0
2018-May-17 00:30N 54°22' E 018°40'0 0.0
2018-May-17 00:00N 54°22' E 018°40'0 0.0
2018-May-16 23:30N 54°22' E 018°40'0 0.0
2018-May-16 23:00N 54°22' E 018°40'0 0.0
2018-May-16 22:30N 54°22' E 018°40'0 0.0
2018-May-16 22:00N 54°22' E 018°40'0 0.0
2018-May-16 21:30N 54°22' E 018°40'0 0.0
2018-May-16 21:00N 54°22' E 018°40'0 0.0
2018-May-16 20:30N 54°22' E 018°40'0 0.0
2018-May-16 20:00N 54°22' E 018°40'0 0.0
2018-May-16 19:30N 54°22' E 018°40'0 0.0
2018-May-16 19:00N 54°22' E 018°40'0 0.0
2018-May-16 18:28N 54°22' E 018°40'0 0.0
2018-May-16 18:00N 54°22' E 018°40'0 0.0
2018-May-16 17:30N 54°22' E 018°40'0 0.0
2018-May-16 17:00N 54°22' E 018°40'0 0.0
2018-May-16 16:29N 54°22' E 018°40'0 0.0
2018-May-16 16:00N 54°22' E 018°40'0 0.0
2018-May-16 15:24N 54°22' E 018°40'0 0.0
2018-May-16 15:00N 54°22' E 018°40'0 0.0
2018-May-16 14:30N 54°22' E 018°40'0 0.0
2018-May-16 13:58N 54°22' E 018°40'0 0.0
2018-May-16 13:28N 54°22' E 018°40'0 0.0
2018-May-16 13:00N 54°22' E 018°40'0 0.0
2018-May-16 12:30N 54°22' E 018°40'0 0.0
2018-May-16 11:55N 54°22' E 018°40'0 0.0
2018-May-16 11:28N 54°22' E 018°40'0 0.0
2018-May-16 10:52N 54°22' E 018°40'0 0.0
2018-May-16 10:28N 54°22' E 018°40'0 0.0
2018-May-16 09:55N 54°22' E 018°40'0 0.0
2018-May-16 09:28N 54°22' E 018°40'0 0.0
2018-May-16 08:55N 54°22' E 018°40'0 0.0
2018-May-16 08:31N 54°22' E 018°40'0 0.0
2018-May-16 07:58N 54°22' E 018°40'0 0.0
2018-May-16 07:28N 54°22' E 018°40'0 0.0
2018-May-16 06:55N 54°22' E 018°40'0 0.0
2018-May-16 06:30N 54°22' E 018°40'2 3.1
2018-May-16 06:00N 54°24' E 018°41'3 7.0
2018-May-16 05:30N 54°27' E 018°41'510.7
2018-May-16 05:00N 54°31' E 018°47'611.6
2018-May-16 04:30N 54°36' E 018°53'611.7
2018-May-16 04:00N 54°41' E 018°57'510.4
2018-May-16 03:30N 54°46' E 018°56'611.6
2018-May-16 03:00N 54°50' E 018°48'611.7
2018-May-16 02:30N 54°54' E 018°40'510.8
2018-May-16 02:00N 54°55' E 018°31'9611.3
2018-May-15 17:33N 54°50' E 015°45'011.5
2018-May-15 17:30N 54°50' E 015°44'611.4
2018-May-15 17:00N 54°50' E 015°34'611.6
2018-May-15 16:30N 54°51' E 015°24'611.6
2018-May-15 16:00N 54°52' E 015°14'611.5
2018-May-15 15:30N 54°52' E 015°04'611.3
2018-May-15 15:00N 54°53' E 014°55'611.2
2018-May-15 14:30N 54°55' E 014°46'611.3
2018-May-15 14:00N 54°58' E 014°37'611.4
2018-May-15 13:30N 55°01' E 014°29'611.5
2018-May-15 13:00N 55°04' E 014°21'611.5
2018-May-15 12:30N 55°07' E 014°12'611.1
2018-May-15 12:00N 55°09' E 014°03'711.4
2018-May-15 11:22N 55°10' E 013°50'611.5
2018-May-15 10:51N 55°11' E 013°40'1311.8
2018-May-15 09:44N 55°13' E 013°17'311.9
2018-May-15 09:30N 55°13' E 013°12'611.8
2018-May-15 09:00N 55°14' E 013°02'611.7
2018-May-15 08:30N 55°15' E 012°52'611.7
2018-May-15 08:00N 55°17' E 012°42'5 9.9
2018-May-15 07:30N 55°21' E 012°38'611.6
2018-May-15 07:00N 55°27' E 012°40'611.4
2018-May-15 06:30N 55°32' E 012°42'510.5
2018-May-15 06:00N 55°37' E 012°42'510.8
2018-May-15 05:30N 55°43' E 012°41'611.1
2018-May-15 05:00N 55°48' E 012°40'511.0
2018-May-15 04:30N 55°54' E 012°38'611.1
2018-May-15 04:00N 55°59' E 012°37'5 9.4
2018-May-15 03:30N 56°04' E 012°37'1511.2
2018-May-15 02:08N 56°13' E 012°14'211.2
2018-May-15 01:58N 56°14' E 012°12'511.3
2018-May-15 01:30N 56°18' E 012°04'611.5
2018-May-15 00:59N 56°23' E 012°01'511.3
2018-May-15 00:30N 56°28' E 011°58'611.3
2018-May-14 23:59N 56°34' E 011°56'511.3
2018-May-14 23:30N 56°39' E 011°54'611.4
2018-May-14 23:00N 56°45' E 011°51'611.4
2018-May-14 22:30N 56°50' E 011°48'611.4
2018-May-14 22:00N 56°55' E 011°44'611.3
2018-May-14 21:29N 57°01' E 011°39'511.3
2018-May-14 21:00N 57°06' E 011°36'611.5
2018-May-14 20:30N 57°11' E 011°33'611.9
2018-May-14 20:00N 57°17' E 011°29'612.0
2018-May-14 19:30N 57°23' E 011°25'612.3
2018-May-14 19:00N 57°29' E 011°22'611.8
2018-May-14 18:30N 57°33' E 011°14'611.7
2018-May-14 18:00N 57°37' E 011°06'611.8
2018-May-14 17:30N 57°41' E 010°58'611.4
2018-May-14 17:00N 57°45' E 010°50'510.9
2018-May-14 16:30N 57°47' E 010°41'611.2
2018-May-14 16:00N 57°47' E 010°30'611.8
2018-May-14 15:30N 57°48' E 010°19'6211.6
2018-May-14 10:08N 57°52' E 008°23'210.7
2018-May-14 10:00N 57°52' E 008°20'510.5
2018-May-14 09:30N 57°53' E 008°10'510.5
2018-May-14 09:00N 57°53' E 008°00'510.6
2018-May-14 08:30N 57°54' E 007°51'510.4
2018-May-14 08:00N 57°54' E 007°41'510.6
2018-May-14 07:30N 57°55' E 007°31'610.4
2018-May-14 06:59N 57°55' E 007°21'511.0
2018-May-14 06:30N 57°56' E 007°11'510.8
2018-May-14 06:00N 57°57' E 007°01'510.6
2018-May-14 05:30N 57°59' E 006°51'510.7
2018-May-14 05:00N 58°00' E 006°42'510.0
2018-May-14 04:30N 58°03' E 006°34'510.1
2018-May-14 04:00N 58°07' E 006°27'611.2
2018-May-14 03:30N 58°10' E 006°19'611.9
2018-May-14 03:00N 58°14' E 006°10'612.0
2018-May-14 02:30N 58°18' E 006°02'612.1
2018-May-14 02:00N 58°22' E 005°53'612.1
2018-May-14 01:31N 58°26' E 005°44'611.4
2018-May-14 01:00N 58°30' E 005°36'611.4
2018-May-14 00:30N 58°34' E 005°29'611.3
2018-May-14 00:00N 58°39' E 005°23'611.6
2018-May-13 23:30N 58°44' E 005°17'611.7
2018-May-13 22:59N 58°49' E 005°11'612.0
2018-May-13 22:30N 58°54' E 005°05'611.8
2018-May-13 22:00N 58°59' E 004°59'611.7
2018-May-13 21:30N 59°04' E 004°55'611.7
2018-May-13 21:00N 59°09' E 004°49'1510.9
2018-May-13 19:40N 59°24' E 004°44'211.6
2018-May-13 19:30N 59°26' E 004°45'611.2
2018-May-13 19:00N 59°31' E 004°46'611.2
2018-May-13 18:30N 59°37' E 004°48'611.3
2018-May-13 18:00N 59°42' E 004°50'611.9
2018-May-13 17:30N 59°48' E 004°51'611.8
2018-May-13 17:00N 59°54' E 004°53'611.5
2018-May-13 16:29N 59°60' E 004°55'611.4
2018-May-13 16:00N 60°05' E 004°56'510.4
2018-May-13 15:30N 60°09' E 005°04'510.2
2018-May-13 15:00N 60°13' E 005°10'510.9
2018-May-13 14:30N 60°18' E 005°12'5 9.9
2018-May-13 14:00N 60°23' E 005°11'5 9.9
2018-May-13 13:30N 60°28' E 005°15'610.8
2018-May-13 13:00N 60°33' E 005°20'611.7
2018-May-13 12:30N 60°36' E 005°29'5 9.7
2018-May-13 12:00N 60°41' E 005°34'2 2.8
2018-May-13 11:28N 60°42' E 005°33'0 0.0
2018-May-13 10:46N 60°42' E 005°33'0 0.0
2018-May-13 10:28N 60°42' E 005°33'0 0.0
2018-May-13 09:46N 60°42' E 005°33'0 0.0
2018-May-13 09:29N 60°42' E 005°33'0 0.0
2018-May-13 08:29N 60°42' E 005°33'0 0.0
2018-May-13 07:59N 60°42' E 005°33'0 0.0
2018-May-13 07:18N 60°42' E 005°33'0 0.1
2018-May-13 06:53N 60°42' E 005°33'0 0.0
2018-May-13 06:17N 60°42' E 005°33'0 0.0
2018-May-13 05:59N 60°42' E 005°33'0 0.0
2018-May-13 05:29N 60°42' E 005°33'0 0.0
2018-May-13 04:58N 60°42' E 005°33'0 0.0
2018-May-13 04:28N 60°42' E 005°33'0 0.0
2018-May-13 03:56N 60°42' E 005°33'0 0.0
2018-May-13 03:30N 60°42' E 005°33'1 1.4
2018-May-13 03:00N 60°41' E 005°34'5 9.5
2018-May-13 02:30N 60°37' E 005°30'3 5.9
2018-May-13 01:59N 60°35' E 005°26'2 5.1
2018-May-13 01:30N 60°33' E 005°22'2 5.0
2018-May-13 01:00N 60°32' E 005°18'2 4.5
2018-May-13 00:30N 60°30' E 005°15'2 4.7
2018-May-13 00:00N 60°28' E 005°15'2 4.8
2018-May-12 23:30N 60°25' E 005°16'2 3.4
2018-May-12 23:00N 60°24' E 005°14'0 0.5
2018-May-12 22:30N 60°24' E 005°14'0 0.0
2018-May-12 22:00N 60°24' E 005°14'0 0.0
2018-May-12 21:30N 60°24' E 005°14'0 0.0
2018-May-12 20:57N 60°24' E 005°14'0 0.1
2018-May-12 20:29N 60°24' E 005°14'3 6.8
2018-May-12 19:59N 60°21' E 005°10'5 9.5
2018-May-12 19:30N 60°16' E 005°10'510.4
2018-May-12 19:00N 60°11' E 005°13'611.5
2018-May-12 18:30N 60°06' E 005°18'611.9
2018-May-12 18:00N 60°00' E 005°19'611.8
2018-May-12 17:30N 59°56' E 005°11'612.4
2018-May-12 17:00N 59°50' E 005°16'1 2.3
2018-May-12 16:27N 59°49' E 005°16'0 0.1
2018-May-12 15:57N 59°49' E 005°16'0 0.0
2018-May-12 15:26N 59°49' E 005°16'0 0.0
2018-May-12 14:57N 59°49' E 005°16'0 0.0
2018-May-12 14:27N 59°49' E 005°16'0 0.0
2018-May-12 13:57N 59°49' E 005°16'0 0.0
2018-May-12 13:27N 59°49' E 005°16'0 0.0
2018-May-12 12:57N 59°49' E 005°16'0 0.0
2018-May-12 12:26N 59°49' E 005°16'0 0.0
2018-May-12 11:57N 59°49' E 005°16'0 0.0
2018-May-12 11:26N 59°49' E 005°16'0 0.0
2018-May-12 10:56N 59°49' E 005°16'0 0.0
2018-May-12 10:26N 59°49' E 005°16'0 0.0
2018-May-12 09:56N 59°49' E 005°16'0 0.0
2018-May-12 09:26N 59°49' E 005°16'0 0.0
2018-May-12 08:56N 59°49' E 005°16'0 0.0
2018-May-12 08:27N 59°49' E 005°16'0 0.0
2018-May-12 07:57N 59°49' E 005°16'0 0.0
2018-May-12 07:27N 59°49' E 005°16'0 0.0
2018-May-12 06:56N 59°49' E 005°16'0 0.0
2018-May-12 06:26N 59°49' E 005°16'0 0.0
2018-May-12 05:57N 59°49' E 005°16'0 0.0
2018-May-12 05:27N 59°49' E 005°16'0 0.0
2018-May-12 04:57N 59°49' E 005°16'0 0.0
2018-May-12 04:29N 59°49' E 005°16'0 0.0
2018-May-12 03:59N 59°49' E 005°16'0 0.0
2018-May-12 03:29N 59°49' E 005°16'0 0.0
2018-May-12 02:59N 59°49' E 005°16'0 0.0
2018-May-12 02:29N 59°49' E 005°16'0 0.0
2018-May-12 01:59N 59°49' E 005°16'0 0.0
2018-May-12 01:29N 59°49' E 005°16'0 0.0
2018-May-12 00:59N 59°49' E 005°16'0 0.0
2018-May-12 00:29N 59°49' E 005°16'0 0.0
2018-May-11 23:59N 59°49' E 005°16'0 0.0
2018-May-11 23:29N 59°49' E 005°16'0 0.0
2018-May-11 22:59N 59°49' E 005°16'0 0.0
2018-May-11 22:29N 59°49' E 005°16'0 0.0
2018-May-11 21:59N 59°49' E 005°16'0 0.0
2018-May-11 21:29N 59°49' E 005°16'0 0.0
2018-May-11 20:59N 59°49' E 005°16'0 0.0
2018-May-11 20:29N 59°49' E 005°16'0 0.0
2018-May-11 20:00N 59°49' E 005°16'0 0.0
2018-May-11 19:30N 59°49' E 005°16'0 0.0
2018-May-11 19:00N 59°49' E 005°16'0 0.0
2018-May-11 18:30N 59°49' E 005°16'0 0.0
2018-May-11 18:00N 59°49' E 005°16'0 0.0
2018-May-11 17:30N 59°49' E 005°16'0 0.0
2018-May-11 17:00N 59°49' E 005°16'0 0.0
2018-May-11 16:30N 59°49' E 005°16'0 0.0
2018-May-11 16:00N 59°49' E 005°16'0 0.0
2018-May-11 15:30N 59°49' E 005°16'0 0.0
2018-May-11 15:00N 59°49' E 005°16'0 0.0
2018-May-11 14:30N 59°49' E 005°16'0 0.0
2018-May-11 14:00N 59°49' E 005°16'0 0.0
2018-May-11 13:30N 59°49' E 005°16'0 0.0
2018-May-11 13:00N 59°49' E 005°16'0 0.0
2018-May-11 12:30N 59°49' E 005°16'0 0.0
2018-May-11 12:00N 59°49' E 005°16'0 0.0
2018-May-11 11:30N 59°49' E 005°16'0 0.0
2018-May-11 11:00N 59°49' E 005°16'0 0.0
2018-May-11 10:30N 59°49' E 005°16'0 0.0
2018-May-11 09:56N 59°49' E 005°16'0 0.0
2018-May-11 09:30N 59°49' E 005°16'0 0.0
2018-May-11 09:00N 59°49' E 005°16'0 0.0
2018-May-11 08:30N 59°49' E 005°16'0 0.0
2018-May-11 08:00N 59°49' E 005°16'0 0.0
2018-May-11 07:30N 59°49' E 005°16'0 0.0
2018-May-11 07:00N 59°49' E 005°16'0 0.0
2018-May-11 06:30N 59°49' E 005°16'0 0.0
2018-May-11 06:00N 59°49' E 005°16'0 0.0
2018-May-11 05:30N 59°49' E 005°16'0 0.0
2018-May-11 05:00N 59°49' E 005°16'0 0.0
2018-May-11 04:30N 59°49' E 005°16'0 0.0
2018-May-11 04:00N 59°49' E 005°16'0 0.0
2018-May-11 03:30N 59°49' E 005°16'0 0.0
2018-May-11 03:00N 59°49' E 005°16'0 0.0
2018-May-11 02:30N 59°49' E 005°16'0 0.0
2018-May-11 02:00N 59°49' E 005°16'0 0.0
2018-May-11 01:30N 59°49' E 005°16'0 0.0
2018-May-11 01:00N 59°49' E 005°16'0 0.0
2018-May-11 00:30N 59°49' E 005°16'0 0.0
2018-May-11 00:00N 59°49' E 005°16'0 0.0
2018-May-10 23:30N 59°49' E 005°16'0 0.0
2018-May-10 23:00N 59°49' E 005°16'0 0.0
2018-May-10 22:30N 59°49' E 005°16'0 0.0
2018-May-10 22:00N 59°49' E 005°16'0 0.0
2018-May-10 21:30N 59°49' E 005°16'0 0.0
2018-May-10 21:00N 59°49' E 005°16'0 0.0
2018-May-10 20:30N 59°49' E 005°16'0 0.0
2018-May-10 20:00N 59°49' E 005°16'0 0.0
2018-May-10 19:30N 59°49' E 005°16'0 0.0
2018-May-10 19:00N 59°49' E 005°16'0 0.0
2018-May-10 18:30N 59°49' E 005°16'0 0.0
2018-May-10 18:00N 59°49' E 005°16'  

Dump ship's entire track history